createdAt,value
2017-05-12T00:00:17.565Z,69.59
2017-05-12T00:01:26.775Z,69.78
2017-05-12T00:02:35.737Z,69.97
2017-05-12T00:03:44.694Z,69.87
2017-05-12T00:04:53.650Z,70.16
2017-05-12T00:06:02.610Z,70.36
2017-05-12T00:07:11.823Z,70.64
2017-05-12T00:08:20.786Z,70.54
2017-05-12T00:09:29.752Z,70.45
2017-05-12T00:10:38.710Z,70.16
2017-05-12T00:11:47.673Z,70.16
2017-05-12T00:12:56.882Z,70.45
2017-05-12T00:14:05.838Z,70.26
2017-05-12T00:15:14.797Z,70.36
2017-05-12T00:16:23.840Z,70.36
2017-05-12T00:17:32.794Z,70.73
2017-05-12T00:18:42.045Z,70.92
2017-05-12T00:19:51.008Z,71.21
2017-05-12T00:20:59.962Z,71.31
2017-05-12T00:22:08.918Z,71.69
2017-05-12T00:23:17.872Z,71.41
2017-05-12T00:24:27.225Z,72.13
2017-05-12T00:25:36.178Z,71.84
2017-05-12T00:26:45.133Z,72.03
2017-05-12T00:27:54.179Z,71.94
2017-05-12T00:29:03.138Z,72.03
2017-05-12T00:30:12.348Z,72.03
2017-05-12T00:31:21.344Z,71.75
2017-05-12T00:32:30.299Z,71.84
2017-05-12T00:33:39.258Z,71.84
2017-05-12T00:34:48.323Z,71.84
2017-05-12T00:35:57.588Z,71.75
2017-05-12T00:37:06.542Z,71.94
2017-05-12T00:38:15.496Z,71.69
2017-05-12T00:39:24.452Z,71.37
2017-05-12T00:40:33.497Z,71.94
2017-05-12T00:41:42.705Z,72.23
2017-05-12T00:42:51.660Z,71.94
2017-05-12T00:44:00.619Z,71.94
2017-05-12T00:45:09.575Z,72.23
2017-05-12T00:46:18.624Z,72.32
2017-05-12T00:47:27.859Z,72.51
2017-05-12T00:48:36.818Z,72.61
2017-05-12T00:49:45.779Z,72.71
2017-05-12T00:50:54.733Z,72.51
2017-05-12T00:52:03.690Z,72.51
2017-05-12T00:53:12.894Z,72.71
2017-05-12T00:54:21.854Z,72.61
2017-05-12T00:55:30.894Z,72.61
2017-05-12T00:56:39.847Z,72.71
2017-05-12T00:57:48.800Z,72.42
2017-05-12T00:58:58.007Z,72.61
2017-05-12T01:00:06.964Z,72.71
2017-05-12T01:01:15.920Z,73.28
2017-05-12T01:02:24.881Z,73.18
2017-05-12T01:03:33.925Z,73.28
2017-05-12T01:04:43.463Z,73.28
2017-05-12T01:05:52.464Z,72.99
2017-05-12T01:07:01.420Z,73.18
2017-05-12T01:08:10.378Z,73.18
2017-05-12T01:09:19.422Z,73.18
2017-05-12T01:10:28.634Z,72.89
2017-05-12T01:11:37.593Z,73.56
2017-05-12T01:12:46.551Z,73.18
2017-05-12T01:13:55.506Z,73.37
2017-05-12T01:15:04.470Z,73.37
2017-05-12T01:16:13.676Z,73.47
2017-05-12T01:17:22.638Z,73.37
2017-05-12T01:18:31.685Z,73.37
2017-05-12T01:19:40.648Z,73.28
2017-05-12T01:20:49.602Z,73.56
2017-05-12T01:21:58.805Z,73.37
2017-05-12T01:23:07.757Z,73.56
2017-05-12T01:24:16.736Z,73.62
2017-05-12T01:25:25.700Z,73.81
2017-05-12T01:26:34.654Z,73.81
2017-05-12T01:27:43.867Z,74.01
2017-05-12T01:28:52.832Z,73.72
2017-05-12T01:30:01.788Z,73.81
2017-05-12T01:31:10.784Z,74.1
2017-05-12T01:32:19.743Z,73.91
2017-05-12T01:33:28.949Z,74.01
2017-05-12T01:34:37.917Z,74.01
2017-05-12T01:35:46.873Z,74.01
2017-05-12T01:36:55.836Z,74.1
2017-05-12T01:38:04.883Z,74.01
2017-05-12T01:39:14.093Z,73.91
2017-05-12T01:40:23.141Z,74.01
2017-05-12T01:41:32.101Z,74.38
2017-05-12T01:42:41.057Z,74.1
2017-05-12T01:43:50.015Z,74.48
2017-05-12T01:44:59.538Z,74.1
2017-05-12T01:46:08.500Z,74.96
2017-05-12T01:47:17.454Z,74.86
2017-05-12T01:48:26.526Z,74.48
2017-05-12T01:49:35.485Z,74.77
2017-05-12T01:50:44.694Z,75.05
2017-05-12T01:51:53.656Z,74.77
2017-05-12T01:53:02.608Z,75.05
2017-05-12T01:54:11.567Z,74.86
2017-05-12T01:55:20.533Z,75.05
2017-05-12T01:56:29.740Z,74.96
2017-05-12T01:57:38.693Z,75.05
2017-05-12T01:58:47.657Z,75.05
2017-05-12T01:59:56.610Z,75.15
2017-05-12T02:01:05.563Z,74.96
2017-05-12T02:02:14.785Z,75.24
2017-05-12T02:03:23.835Z,75.05
2017-05-12T02:04:32.883Z,74.96
2017-05-12T02:05:41.979Z,75.05
2017-05-12T02:06:50.939Z,75.15
2017-05-12T02:08:00.155Z,75.15
2017-05-12T02:09:09.104Z,75.15
2017-05-12T02:10:18.065Z,75.24
2017-05-12T02:11:27.013Z,75.05
2017-05-12T02:12:36.067Z,74.86
2017-05-12T02:13:45.651Z,75.05
2017-05-12T02:14:54.625Z,74.67
2017-05-12T02:16:03.592Z,74.77
2017-05-12T02:17:12.545Z,75.05
2017-05-12T02:18:21.826Z,75.24
2017-05-12T02:19:31.037Z,75.62
2017-05-12T02:20:40.004Z,75.15
2017-05-12T02:21:49.045Z,75.05
2017-05-12T02:22:58.087Z,75.05
2017-05-12T02:24:07.047Z,75.24
2017-05-12T02:25:16.260Z,75.15
2017-05-12T02:26:25.218Z,75.72
2017-05-12T02:27:34.504Z,75.53
2017-05-12T02:28:43.458Z,75.53
2017-05-12T02:29:52.420Z,75.59
2017-05-12T02:31:01.635Z,75.96
2017-05-12T02:32:10.592Z,75.87
2017-05-12T02:33:19.635Z,76.16
2017-05-12T02:34:28.595Z,76.16
2017-05-12T02:35:37.549Z,76.16
2017-05-12T02:36:46.756Z,75.87
2017-05-12T02:37:55.719Z,76.44
2017-05-12T02:39:05.001Z,76.35
2017-05-12T02:40:13.955Z,76.16
2017-05-12T02:41:22.909Z,76.16
2017-05-12T02:42:32.163Z,75.96
2017-05-12T02:43:41.121Z,76.06
2017-05-12T02:44:50.075Z,76.54
2017-05-12T02:45:59.030Z,76.44
2017-05-12T02:47:07.989Z,76.44
2017-05-12T02:48:17.201Z,76.92
2017-05-12T02:49:26.253Z,76.92
2017-05-12T02:50:35.206Z,76.54
2017-05-12T02:51:44.163Z,76.73
2017-05-12T02:52:53.117Z,76.54
2017-05-12T02:54:02.329Z,76.64
2017-05-12T02:55:11.289Z,76.64
2017-05-12T02:56:20.335Z,76.44
2017-05-12T02:57:29.341Z,76.64
2017-05-12T02:58:38.320Z,76.44
2017-05-12T02:59:47.525Z,76.64
2017-05-12T03:00:56.482Z,76.35
2017-05-12T03:02:05.439Z,76.54
2017-05-12T03:03:14.395Z,76.82
2017-05-12T03:04:23.348Z,76.64
2017-05-12T03:05:32.690Z,76.54
2017-05-12T03:06:41.642Z,76.54
2017-05-12T03:07:50.601Z,76.82
2017-05-12T03:08:59.563Z,76.73
2017-05-12T03:10:08.517Z,76.82
2017-05-12T03:11:17.724Z,76.73
2017-05-12T03:12:26.680Z,76.82
2017-05-12T03:13:35.635Z,76.54
2017-05-12T03:14:44.591Z,76.92
2017-05-12T03:15:53.553Z,77.11
2017-05-12T03:17:03.089Z,76.92
2017-05-12T03:18:12.041Z,76.44
2017-05-12T03:19:20.995Z,76.73
2017-05-12T03:20:29.956Z,76.54
2017-05-12T03:21:38.911Z,76.35
2017-05-12T03:22:48.116Z,76.35
2017-05-12T03:23:57.075Z,76.64
2017-05-12T03:25:06.360Z,76.35
2017-05-12T03:26:15.317Z,76.54
2017-05-12T03:27:24.359Z,76.35
2017-05-12T03:28:33.656Z,76.44
2017-05-12T03:29:42.614Z,76.73
2017-05-12T03:30:51.655Z,76.35
2017-05-12T03:32:00.783Z,76.64
2017-05-12T03:33:09.734Z,76.64
2017-05-12T03:34:18.997Z,76.64
2017-05-12T03:35:27.957Z,76.44
2017-05-12T03:36:36.910Z,77.11
2017-05-12T03:37:45.864Z,76.82
2017-05-12T03:38:54.828Z,76.82
2017-05-12T03:40:04.043Z,76.82
2017-05-12T03:41:13.004Z,76.92
2017-05-12T03:42:21.958Z,76.73
2017-05-12T03:43:30.912Z,77.01
2017-05-12T03:44:39.865Z,76.92
2017-05-12T03:45:49.209Z,76.92
2017-05-12T03:46:58.261Z,77.01
2017-05-12T03:48:07.307Z,77.4
2017-05-12T03:49:16.265Z,77.3
2017-05-12T03:50:25.223Z,77.3
2017-05-12T03:51:34.427Z,77.01
2017-05-12T03:52:43.381Z,77.3
2017-05-12T03:53:52.336Z,77.4
2017-05-12T03:55:01.298Z,77.3
2017-05-12T03:56:10.254Z,77.01
2017-05-12T03:57:19.458Z,77.17
2017-05-12T03:58:28.411Z,77.01
2017-05-12T03:59:37.379Z,77.3
2017-05-12T04:00:46.429Z,77.4
2017-05-12T04:01:55.390Z,77.2
2017-05-12T04:03:04.598Z,77.4
2017-05-12T04:04:13.554Z,77.2
2017-05-12T04:05:22.505Z,77.11
2017-05-12T04:06:31.463Z,77.2
2017-05-12T04:07:40.417Z,76.92
2017-05-12T04:08:49.618Z,77.74
2017-05-12T04:09:58.624Z,77.64
2017-05-12T04:11:07.579Z,77.59
2017-05-12T04:12:16.536Z,77.45
2017-05-12T04:13:25.489Z,77.59
2017-05-12T04:14:34.699Z,77.45
2017-05-12T04:15:43.653Z,77.69
2017-05-12T04:16:52.608Z,77.97
2017-05-12T04:18:01.563Z,77.83
2017-05-12T04:19:10.520Z,77.4
2017-05-12T04:20:19.728Z,77.59
2017-05-12T04:21:29.016Z,77.49
2017-05-12T04:22:37.970Z,77.78
2017-05-12T04:23:46.922Z,77.59
2017-05-12T04:24:55.878Z,77.49
2017-05-12T04:26:05.085Z,77.78
2017-05-12T04:27:14.041Z,77.11
2017-05-12T04:28:22.999Z,77.01
2017-05-12T04:29:31.957Z,77.3
2017-05-12T04:30:40.915Z,77.49
2017-05-12T04:31:50.121Z,77.78
2017-05-12T04:32:59.078Z,77.11
2017-05-12T04:34:08.041Z,77.69
2017-05-12T04:35:17.044Z,77.01
2017-05-12T04:36:25.996Z,77.01
2017-05-12T04:37:35.203Z,77.2
2017-05-12T04:38:44.504Z,77.49
2017-05-12T04:39:53.465Z,77.2
2017-05-12T04:41:02.423Z,77.2
2017-05-12T04:42:11.380Z,77.3
2017-05-12T04:43:20.625Z,77.01
2017-05-12T04:44:29.585Z,77.11
2017-05-12T04:45:38.554Z,77.3
2017-05-12T04:46:47.511Z,77.01
2017-05-12T04:47:56.474Z,77.01
2017-05-12T04:49:05.682Z,76.82
2017-05-12T04:50:14.637Z,76.64
2017-05-12T04:51:23.595Z,76.73
2017-05-12T04:52:32.556Z,76.73
2017-05-12T04:53:41.514Z,76.35
2017-05-12T04:54:51.131Z,76.92
2017-05-12T04:56:00.146Z,76.16
2017-05-12T04:57:09.186Z,76.44
2017-05-12T04:58:18.141Z,76.54
2017-05-12T04:59:27.097Z,76.54
2017-05-12T05:00:36.303Z,76.54
2017-05-12T05:01:45.260Z,76.25
2017-05-12T05:02:54.305Z,76.25
2017-05-12T05:04:03.258Z,76.16
2017-05-12T05:05:12.207Z,76.25
2017-05-12T05:06:21.461Z,76.06
2017-05-12T05:07:30.735Z,75.91
2017-05-12T05:08:39.693Z,76.1
2017-05-12T05:09:48.657Z,75.91
2017-05-12T05:10:57.612Z,76.01
2017-05-12T05:12:06.823Z,76.06
2017-05-12T05:13:15.863Z,76.25
2017-05-12T05:14:24.821Z,75.87
2017-05-12T05:15:33.783Z,76.06
2017-05-12T05:16:42.741Z,76.01
2017-05-12T05:17:51.948Z,75.81
2017-05-12T05:19:00.904Z,75.34
2017-05-12T05:20:09.852Z,75.72
2017-05-12T05:21:18.806Z,75.4
2017-05-12T05:22:27.761Z,75.34
2017-05-12T05:23:37.059Z,75.62
2017-05-12T05:24:46.016Z,75.53
2017-05-12T05:25:54.972Z,75.53
2017-05-12T05:27:03.928Z,76.01
2017-05-12T05:28:12.882Z,75.43
2017-05-12T05:29:22.432Z,75.91
2017-05-12T05:30:31.479Z,76.01
2017-05-12T05:31:40.431Z,75.49
2017-05-12T05:32:49.480Z,75.53
2017-05-12T05:33:58.440Z,75.53
2017-05-12T05:35:07.650Z,75.62
2017-05-12T05:36:16.607Z,76.01
2017-05-12T05:37:25.892Z,75.62
2017-05-12T05:38:34.853Z,75.81
2017-05-12T05:39:43.802Z,75.81
2017-05-12T05:40:53.011Z,75.62
2017-05-12T05:42:01.977Z,75.62
2017-05-12T05:43:10.932Z,75.53
2017-05-12T05:44:19.888Z,75.53
2017-05-12T05:45:28.842Z,75.72
2017-05-12T05:46:38.048Z,75.91
2017-05-12T05:47:47.090Z,75.53
2017-05-12T05:48:56.139Z,75.15
2017-05-12T05:50:05.095Z,75.72
2017-05-12T05:51:14.051Z,75.72
2017-05-12T05:52:23.305Z,75.05
2017-05-12T05:53:32.263Z,74.77
2017-05-12T05:54:41.233Z,74.96
2017-05-12T05:55:50.187Z,74.86
2017-05-12T05:56:59.146Z,74.96
2017-05-12T05:58:08.574Z,74.67
2017-05-12T05:59:17.524Z,74.86
2017-05-12T06:00:26.517Z,74.48
2017-05-12T06:01:35.473Z,75.05
2017-05-12T06:02:44.771Z,74.86
2017-05-12T06:03:53.977Z,74.01
2017-05-12T06:05:02.935Z,74.57
2017-05-12T06:06:11.892Z,74.29
2017-05-12T06:07:20.853Z,74.38
2017-05-12T06:08:29.812Z,73.72
2017-05-12T06:09:39.103Z,73.62
2017-05-12T06:10:48.060Z,73.62
2017-05-12T06:11:57.018Z,73.81
2017-05-12T06:13:05.979Z,73.81
2017-05-12T06:14:15.275Z,73.75
2017-05-12T06:15:24.530Z,73.85
2017-05-12T06:16:33.481Z,73.91
2017-05-12T06:17:42.437Z,73.94
2017-05-12T06:18:51.581Z,73.66
2017-05-12T06:20:00.544Z,73.37
2017-05-12T06:21:10.084Z,73.47
2017-05-12T06:22:19.048Z,73.37
2017-05-12T06:23:28.011Z,73.56
2017-05-12T06:24:36.972Z,73.18
2017-05-12T06:25:45.933Z,73.08
2017-05-12T06:26:55.147Z,73.37
2017-05-12T06:28:04.106Z,73.28
2017-05-12T06:29:13.151Z,73.18
2017-05-12T06:30:22.197Z,72.71
2017-05-12T06:31:31.161Z,72.51
2017-05-12T06:32:40.369Z,72.8
2017-05-12T06:33:49.325Z,72.32
2017-05-12T06:34:58.280Z,72.42
2017-05-12T06:36:07.248Z,71.94
2017-05-12T06:37:16.202Z,72.03
2017-05-12T06:38:25.457Z,71.98
2017-05-12T06:39:34.821Z,72.07
2017-05-12T06:40:43.775Z,71.69
2017-05-12T06:41:52.730Z,71.31
2017-05-12T06:43:01.685Z,70.92
2017-05-12T06:44:10.933Z,70.92
2017-05-12T06:45:19.982Z,71.02
2017-05-12T06:46:28.949Z,70.83
2017-05-12T06:47:37.920Z,70.36
2017-05-12T06:48:46.952Z,70.45
2017-05-12T06:49:56.160Z,70.54
2017-05-12T06:51:05.122Z,70.64
2017-05-12T06:52:14.080Z,70.64
2017-05-12T06:53:23.134Z,70.26
2017-05-12T06:54:32.097Z,69.78
2017-05-12T06:55:41.305Z,69.59
2017-05-12T06:56:50.265Z,69.62
2017-05-12T06:57:59.223Z,69.43
2017-05-12T06:59:08.186Z,69.62
2017-05-12T07:00:17.144Z,68.96
2017-05-12T07:01:26.695Z,68.96
2017-05-12T07:02:35.665Z,68.67
2017-05-12T07:03:44.624Z,68.67
2017-05-12T07:04:53.592Z,68.67
2017-05-12T07:06:02.545Z,68.57
2017-05-12T07:07:11.747Z,68.29
2017-05-12T07:08:20.702Z,68.67
2017-05-12T07:09:29.664Z,68.29
2017-05-12T07:10:38.617Z,68.57
2017-05-12T07:11:47.905Z,68.38
2017-05-12T07:12:57.114Z,68.29
2017-05-12T07:14:06.162Z,68.61
2017-05-12T07:15:15.126Z,68.32
2017-05-12T07:16:24.088Z,67.75
2017-05-12T07:17:33.069Z,67.84
2017-05-12T07:18:42.290Z,67.65
2017-05-12T07:19:51.566Z,67.55
2017-05-12T07:21:00.851Z,67.36
2017-05-12T07:22:09.809Z,67.75
2017-05-12T07:23:18.772Z,67.36
2017-05-12T07:24:28.161Z,67.18
2017-05-12T07:25:37.206Z,67.27
2017-05-12T07:26:46.162Z,67.08
2017-05-12T07:27:55.127Z,67.36
2017-05-12T07:29:04.094Z,66.79
2017-05-12T07:30:13.301Z,66.6
2017-05-12T07:31:22.273Z,66.79
2017-05-12T07:32:31.275Z,66.73
2017-05-12T07:33:40.233Z,66.7
2017-05-12T07:34:49.197Z,66.73
2017-05-12T07:35:58.404Z,66.73
2017-05-12T07:37:07.366Z,66.54
2017-05-12T07:38:16.413Z,66.25
2017-05-12T07:39:25.453Z,66.25
2017-05-12T07:40:34.410Z,65.97
2017-05-12T07:41:43.622Z,66.54
2017-05-12T07:42:52.674Z,66.73
2017-05-12T07:44:01.651Z,66.73
2017-05-12T07:45:10.610Z,65.97
2017-05-12T07:46:19.567Z,65.97
2017-05-12T07:47:29.108Z,65.87
2017-05-12T07:48:38.082Z,65.77
2017-05-12T07:49:47.051Z,65.77
2017-05-12T07:50:56.977Z,64.82
2017-05-12T07:52:05.963Z,64.82
2017-05-12T07:53:15.297Z,64.82
2017-05-12T07:54:24.283Z,64.95
2017-05-12T07:55:33.280Z,64.66
2017-05-12T07:56:42.244Z,64.37
2017-05-12T07:57:51.561Z,64.47
2017-05-12T07:59:00.778Z,64.28
2017-05-12T08:00:09.823Z,64.37
2017-05-12T08:01:18.793Z,64.66
2017-05-12T08:02:27.753Z,64.09
2017-05-12T08:03:36.713Z,64.09
2017-05-12T08:04:46.010Z,63.99
2017-05-12T08:05:55.159Z,63.89
2017-05-12T08:07:04.124Z,63.42
2017-05-12T08:08:13.081Z,63.54
2017-05-12T08:09:22.038Z,63.06
2017-05-12T08:10:31.247Z,63.16
2017-05-12T08:11:40.226Z,62.77
2017-05-12T08:12:49.183Z,62.87
2017-05-12T08:13:58.143Z,62.4
2017-05-12T08:15:07.108Z,62.59
2017-05-12T08:16:16.318Z,62.49
2017-05-12T08:17:25.285Z,62.23
2017-05-12T08:18:34.242Z,62.43
2017-05-12T08:19:43.206Z,61.57
2017-05-12T08:20:52.164Z,61.66
2017-05-12T08:22:01.372Z,61.76
2017-05-12T08:23:10.333Z,61.08
2017-05-12T08:24:19.413Z,61.08
2017-05-12T08:25:28.420Z,61.47
2017-05-12T08:26:37.470Z,60.89
2017-05-12T08:27:46.678Z,61.37
2017-05-12T08:28:55.641Z,61.28
2017-05-12T08:30:04.697Z,61.21
2017-05-12T08:31:13.760Z,61.31
2017-05-12T08:32:22.797Z,60.93
2017-05-12T08:33:32.165Z,60.73
2017-05-12T08:34:41.131Z,60.83
2017-05-12T08:35:51.256Z,60.73
2017-05-12T08:37:01.619Z,60.73
2017-05-12T08:38:10.582Z,60.83
2017-05-12T08:39:19.836Z,60.16
2017-05-12T08:40:28.799Z,60.16
2017-05-12T08:41:37.827Z,60
2017-05-12T08:42:47.004Z,59.9
2017-05-12T08:43:56.304Z,59.8
2017-05-12T08:45:05.515Z,59.42
2017-05-12T08:46:14.475Z,59.61
2017-05-12T08:47:23.435Z,59.52
2017-05-12T08:48:32.411Z,59.71
2017-05-12T08:49:41.945Z,59.23
2017-05-12T08:50:51.672Z,59.33
2017-05-12T08:52:00.634Z,59.45
2017-05-12T08:53:09.598Z,59.16
2017-05-12T08:54:18.696Z,59.45
2017-05-12T08:55:29.984Z,58.97
2017-05-12T08:56:39.192Z,58.59
2017-05-12T08:57:48.147Z,58.3
2017-05-12T08:58:57.114Z,58.01
2017-05-12T09:00:06.078Z,57.82
2017-05-12T09:01:15.051Z,58.04
2017-05-12T09:02:24.353Z,58.14
2017-05-12T09:03:33.314Z,57.18
2017-05-12T09:04:42.277Z,57.56
2017-05-12T09:05:51.243Z,57.18
2017-05-12T09:07:00.474Z,57.56
2017-05-12T09:08:09.869Z,57.46
2017-05-12T09:09:18.842Z,57.28
2017-05-12T09:10:27.808Z,57.28
2017-05-12T09:11:36.770Z,57.08
2017-05-12T09:12:45.735Z,56.7
2017-05-12T09:13:55.429Z,57.75
2017-05-12T09:15:05.139Z,57.65
2017-05-12T09:16:14.449Z,56.79
2017-05-12T09:17:25.190Z,56.41
2017-05-12T09:18:36.988Z,56.41
2017-05-12T09:19:46.569Z,56.22
2017-05-12T09:20:55.564Z,56.22
2017-05-12T09:22:04.540Z,55.86
2017-05-12T09:23:13.598Z,56.05
2017-05-12T09:24:22.561Z,55.96
2017-05-12T09:25:31.776Z,55.77
2017-05-12T09:26:40.882Z,55.86
2017-05-12T09:27:49.833Z,55.86
2017-05-12T09:28:58.797Z,55.96
2017-05-12T09:30:07.760Z,55.77
2017-05-12T09:31:17.062Z,55.86
2017-05-12T09:32:26.083Z,55.57
2017-05-12T09:33:35.099Z,55.29
2017-05-12T09:34:44.823Z,55.32
2017-05-12T09:35:53.788Z,54.74
2017-05-12T09:37:03.006Z,54.93
2017-05-12T09:38:12.049Z,54.83
2017-05-12T09:39:21.188Z,54.83
2017-05-12T09:40:30.147Z,54.45
2017-05-12T09:41:39.105Z,53.97
2017-05-12T09:42:48.328Z,54
2017-05-12T09:43:57.644Z,54.28
2017-05-12T09:45:06.617Z,54
2017-05-12T09:46:15.600Z,53.13
2017-05-12T09:47:24.560Z,53.32
2017-05-12T09:48:33.775Z,53.23
2017-05-12T09:49:42.755Z,53.23
2017-05-12T09:50:51.728Z,52.77
2017-05-12T09:52:00.695Z,52.58
2017-05-12T09:53:09.657Z,52.39
2017-05-12T09:54:18.871Z,52.39
2017-05-12T09:55:27.835Z,52.39
2017-05-12T09:56:36.793Z,52.39
2017-05-12T09:57:45.761Z,51.72
2017-05-12T09:58:54.725Z,51.53
2017-05-12T10:00:03.937Z,51.55
2017-05-12T10:01:12.894Z,51.84
2017-05-12T10:02:21.853Z,51.62
2017-05-12T10:03:31.227Z,51.17
2017-05-12T10:04:40.283Z,51.17
2017-05-12T10:05:49.495Z,51.45
2017-05-12T10:06:58.462Z,51.45
2017-05-12T10:08:07.428Z,51.45
2017-05-12T10:09:16.393Z,51.35
2017-05-12T10:10:25.355Z,51.93
2017-05-12T10:11:34.568Z,51.84
2017-05-12T10:12:43.616Z,51.64
2017-05-12T10:13:52.576Z,51.93
2017-05-12T10:15:01.539Z,51.74
2017-05-12T10:16:10.507Z,51.26
2017-05-12T10:17:20.203Z,51.07
2017-05-12T10:18:29.484Z,49.94
2017-05-12T10:19:38.449Z,50.2
2017-05-12T10:20:47.421Z,50.23
2017-05-12T10:21:56.388Z,50.04
2017-05-12T10:23:05.691Z,49.84
2017-05-12T10:24:14.656Z,50.04
2017-05-12T10:25:23.627Z,50.04
2017-05-12T10:26:32.714Z,50.04
2017-05-12T10:27:41.678Z,50.51
2017-05-12T10:28:52.026Z,49.74
2017-05-12T10:30:03.384Z,50.32
2017-05-12T10:31:15.673Z,49.65
2017-05-12T10:32:24.641Z,49.58
2017-05-12T10:33:33.603Z,49.68
2017-05-12T10:34:42.812Z,49
2017-05-12T10:35:51.772Z,48.81
2017-05-12T10:37:00.733Z,48.81
2017-05-12T10:38:09.739Z,48.81
2017-05-12T10:39:18.704Z,49.19
2017-05-12T10:40:27.920Z,49.38
2017-05-12T10:41:36.885Z,48.71
2017-05-12T10:42:45.849Z,47.94
2017-05-12T10:43:54.812Z,47.65
2017-05-12T10:45:03.773Z,47.49
2017-05-12T10:46:12.985Z,47.58
2017-05-12T10:47:21.950Z,47.87
2017-05-12T10:48:30.911Z,48.25
2017-05-12T10:49:39.875Z,47.77
2017-05-12T10:50:48.842Z,48.06
2017-05-12T10:51:58.060Z,47.87
2017-05-12T10:53:07.024Z,47.97
2017-05-12T10:54:16.086Z,48.06
2017-05-12T10:55:25.047Z,47.87
2017-05-12T10:56:34.016Z,46.71
2017-05-12T10:57:43.225Z,46.55
2017-05-12T10:58:52.190Z,46.81
2017-05-12T11:00:01.158Z,46.62
2017-05-12T11:01:10.124Z,46.62
2017-05-12T11:02:19.087Z,46.83
2017-05-12T11:03:28.384Z,45.97
2017-05-12T11:04:37.437Z,45.68
2017-05-12T11:05:46.402Z,44.62
2017-05-12T11:06:55.373Z,44.62
2017-05-12T11:08:04.335Z,44.45
2017-05-12T11:09:13.549Z,44.71
2017-05-12T11:10:22.511Z,44.62
2017-05-12T11:11:31.654Z,44.62
2017-05-12T11:12:40.702Z,44.35
2017-05-12T11:13:49.668Z,44.83
2017-05-12T11:14:59.023Z,44.64
2017-05-12T11:16:07.986Z,45.21
2017-05-12T11:17:17.275Z,44.54
2017-05-12T11:18:26.246Z,43.87
2017-05-12T11:19:35.243Z,44.15
2017-05-12T11:20:44.797Z,44.15
2017-05-12T11:21:53.764Z,43.29
2017-05-12T11:23:02.727Z,43.48
2017-05-12T11:24:11.787Z,43.96
2017-05-12T11:25:20.845Z,43.87
2017-05-12T11:26:30.058Z,43.87
2017-05-12T11:27:39.021Z,43
2017-05-12T11:28:48.001Z,42.44
2017-05-12T11:29:56.969Z,41.77
2017-05-12T11:31:05.939Z,41.86
2017-05-12T11:32:29.772Z,41.67
2017-05-12T11:33:38.733Z,40.61
2017-05-12T11:34:47.707Z,40.9
2017-05-12T11:35:56.755Z,41.38
2017-05-12T11:37:05.720Z,41.86
2017-05-12T11:38:14.941Z,41.48
2017-05-12T11:39:24.059Z,41.09
2017-05-12T11:40:33.310Z,40.8
2017-05-12T11:41:42.277Z,40.61
2017-05-12T11:42:51.963Z,40.9
2017-05-12T11:44:00.929Z,40.42
2017-05-12T11:45:09.910Z,40.61
2017-05-12T11:46:18.874Z,40.7
2017-05-12T11:47:27.838Z,40.12
2017-05-12T11:48:37.082Z,40.12
2017-05-12T11:49:46.052Z,40.42
2017-05-12T11:50:55.016Z,40.05
2017-05-12T11:52:04.068Z,39.94
2017-05-12T11:53:13.031Z,40.34
2017-05-12T11:54:22.334Z,39.94
2017-05-12T11:55:31.388Z,40.8
2017-05-12T11:56:40.354Z,40.63
2017-05-12T11:57:49.313Z,40.05
2017-05-12T11:59:01.567Z,39.57
2017-05-12T12:00:11.883Z,39.66
2017-05-12T12:01:20.853Z,39.37
2017-05-12T12:02:29.901Z,39.66
2017-05-12T12:03:38.869Z,39.66
2017-05-12T12:04:47.836Z,39.28
2017-05-12T12:05:57.141Z,39.37
2017-05-12T12:07:06.103Z,40.63
2017-05-12T12:08:15.073Z,40.15
2017-05-12T12:09:24.122Z,40.63
2017-05-12T12:10:33.085Z,40.44
2017-05-12T12:11:42.326Z,40.44
2017-05-12T12:12:51.288Z,40.63
2017-05-12T12:14:00.254Z,40.34
2017-05-12T12:15:09.221Z,40.63
2017-05-12T12:16:18.191Z,40.05
2017-05-12T12:17:27.404Z,39.66
2017-05-12T12:18:36.464Z,40.05
2017-05-12T12:19:45.517Z,40.34
2017-05-12T12:20:54.489Z,40.05
2017-05-12T12:22:03.778Z,40.05
2017-05-12T12:23:12.994Z,39.37
2017-05-12T12:24:22.054Z,39.28
2017-05-12T12:25:31.020Z,39.47
2017-05-12T12:26:40.014Z,39.57
2017-05-12T12:27:48.979Z,39.47
2017-05-12T12:28:58.201Z,39.28
2017-05-12T12:30:07.323Z,39.28
2017-05-12T12:31:16.591Z,39.57
2017-05-12T12:32:25.558Z,39.37
2017-05-12T12:33:34.536Z,39.47
2017-05-12T12:34:43.753Z,38.91
2017-05-12T12:35:52.807Z,39.76
2017-05-12T12:37:01.863Z,39.47
2017-05-12T12:38:10.827Z,39.59
2017-05-12T12:39:19.793Z,39.66
2017-05-12T12:40:29.008Z,39.49
2017-05-12T12:41:37.971Z,39.78
2017-05-12T12:42:46.942Z,39.49
2017-05-12T12:43:55.995Z,39.76
2017-05-12T12:45:04.962Z,39.11
2017-05-12T12:46:14.175Z,39.11
2017-05-12T12:47:23.136Z,39.11
2017-05-12T12:48:32.103Z,39.59
2017-05-12T12:49:41.191Z,39.69
2017-05-12T12:50:50.422Z,39.39
2017-05-12T12:51:59.722Z,39.47
2017-05-12T12:53:08.776Z,39.29
2017-05-12T12:54:17.741Z,39.69
2017-05-12T12:55:26.701Z,39.59
2017-05-12T12:56:35.662Z,39.69
2017-05-12T12:57:45.208Z,40.17
2017-05-12T12:58:54.170Z,40.07
2017-05-12T13:00:03.133Z,40.07
2017-05-12T13:01:12.107Z,40.07
2017-05-12T13:02:21.074Z,40.36
2017-05-12T13:03:30.290Z,39.69
2017-05-12T13:04:39.318Z,39.49
2017-05-12T13:05:48.378Z,39.69
2017-05-12T13:06:57.342Z,39.49
2017-05-12T13:08:06.307Z,39.59
2017-05-12T13:09:15.528Z,39.59
2017-05-12T13:10:24.495Z,39.59
2017-05-12T13:11:33.466Z,39.69
2017-05-12T13:12:42.425Z,39.49
2017-05-12T13:13:51.493Z,39.97
2017-05-12T13:15:00.709Z,39.59
2017-05-12T13:16:09.712Z,39.78
2017-05-12T13:17:18.683Z,39.69
2017-05-12T13:18:27.654Z,39.59
2017-05-12T13:19:36.619Z,39.69
2017-05-12T13:20:45.837Z,39.39
2017-05-12T13:21:54.800Z,39.39
2017-05-12T13:23:03.814Z,39.49
2017-05-12T13:24:12.782Z,39.39
2017-05-12T13:25:21.742Z,39.87
2017-05-12T13:26:31.043Z,39.22
2017-05-12T13:27:40.012Z,39.69
2017-05-12T13:28:49.077Z,40.09
2017-05-12T13:29:58.041Z,39.49
2017-05-12T13:31:07.003Z,39.49
2017-05-12T13:32:16.221Z,39.59
2017-05-12T13:33:25.201Z,39.49
2017-05-12T13:34:34.165Z,39.97
2017-05-12T13:35:43.131Z,40.17
2017-05-12T13:36:52.097Z,40.17
2017-05-12T13:38:01.314Z,39.69
2017-05-12T13:39:10.277Z,39.7
2017-05-12T13:40:19.240Z,39.8
2017-05-12T13:41:28.294Z,39.49
2017-05-12T13:42:37.585Z,39.69
2017-05-12T13:43:46.804Z,40.65
2017-05-12T13:44:55.771Z,40.45
2017-05-12T13:46:04.746Z,40.36
2017-05-12T13:47:13.798Z,40.17
2017-05-12T13:48:22.851Z,39.69
2017-05-12T13:49:32.064Z,39.78
2017-05-12T13:50:41.036Z,39.59
2017-05-12T13:51:50.006Z,39.69
2017-05-12T13:52:58.971Z,40.17
2017-05-12T13:54:08.018Z,40.36
2017-05-12T13:55:17.243Z,40.26
2017-05-12T13:56:26.213Z,40.36
2017-05-12T13:57:35.177Z,40.75
2017-05-12T13:58:44.234Z,40.65
2017-05-12T13:59:53.201Z,40.36
2017-05-12T14:01:02.419Z,40.36
2017-05-12T14:02:11.386Z,40.94
2017-05-12T14:03:20.357Z,40.45
2017-05-12T14:04:29.322Z,40.94
2017-05-12T14:05:38.288Z,40.45
2017-05-12T14:06:47.502Z,40.84
2017-05-12T14:07:56.465Z,40.75
2017-05-12T14:09:05.428Z,40.65
2017-05-12T14:10:14.388Z,40.45
2017-05-12T14:11:23.351Z,40.84
2017-05-12T14:12:32.564Z,40.36
2017-05-12T14:13:41.531Z,40.07
2017-05-12T14:14:50.499Z,40.36
2017-05-12T14:15:59.466Z,40.45
2017-05-12T14:17:08.442Z,40.45
2017-05-12T14:18:17.653Z,40.26
2017-05-12T14:19:26.614Z,40.65
2017-05-12T14:20:35.664Z,40.17
2017-05-12T14:21:44.950Z,39.49
2017-05-12T14:22:53.914Z,39.29
2017-05-12T14:24:03.126Z,39.2
2017-05-12T14:25:12.095Z,39.22
2017-05-12T14:26:21.148Z,38.91
2017-05-12T14:27:30.205Z,38.83
2017-05-12T14:28:39.176Z,39.22
2017-05-12T14:29:48.390Z,38.74
2017-05-12T14:30:57.445Z,39.29
2017-05-12T14:32:06.414Z,38.83
2017-05-12T14:33:15.386Z,38.93
2017-05-12T14:34:24.348Z,38.35
2017-05-12T14:35:33.599Z,38.64
2017-05-12T14:36:42.563Z,38.45
2017-05-12T14:37:51.527Z,38.25
2017-05-12T14:39:00.496Z,38.16
2017-05-12T14:40:09.457Z,38.45
2017-05-12T14:41:18.677Z,38.83
2017-05-12T14:42:27.647Z,39.12
2017-05-12T14:43:36.710Z,38.83
2017-05-12T14:44:45.671Z,38.83
2017-05-12T14:45:54.634Z,38.64
2017-05-12T14:47:03.852Z,38.45
2017-05-12T14:48:12.818Z,38.54
2017-05-12T14:49:21.782Z,38.64
2017-05-12T14:50:30.748Z,38.45
2017-05-12T14:51:39.715Z,38.25